Time,TemperatureF,DewpointF,PressureIn,WindDirection,WindDirectionDegrees,WindSpeedMPH,WindSpeedGustMPH,Humidity,HourlyPrecipIn,Conditions,Clouds,dailyrainin,SoftwareType,DateUTC
2013-12-04 00:01:00,30.7,30.0,30.04,NNE,26,0.0,0.0,97,0.00,,---,0.00,VWS V13.01,2013-12-04 05:01:00,
2013-12-04 00:02:00,30.7,30.0,30.04,NNE,26,0.0,0.0,97,0.00,,---,0.00,VWS V13.01,2013-12-04 05:02:00,
2013-12-04 00:03:00,30.7,30.0,30.04,NNE,27,0.0,0.0,97,0.00,,---,0.00,VWS V13.01,2013-12-04 05:03:00,
2013-12-04 00:04:00,30.7,30.0,30.04,NNE,26,0.0,0.0,97,0.00,,---,0.00,VWS V13.01,2013-12-04 05:04:00,
2013-12-04 00:06:00,30.7,30.0,30.04,NNE,27,0.0,0.0,97,0.00,,---,0.00,VWS V13.01,2013-12-04 05:06:00,
2013-12-04 00:09:00,30.8,30.0,30.04,NNE,26,0.0,0.0,97,0.00,,---,0.00,VWS V13.01,2013-12-04 05:09:00,
2013-12-04 00:14:00,30.7,30.0,30.04,NNE,26,0.0,0.0,97,0.00,,---,0.00,VWS V13.01,2013-12-04 05:14:00,
2013-12-04 00:19:00,30.8,30.0,30.03,NNE,26,0.0,0.0,97,0.00,,---,0.00,VWS V13.01,2013-12-04 05:19:00,
2013-12-04 00:24:00,31.6,30.9,30.04,NNE,27,0.0,1.0,97,0.00,,---,0.00,VWS V13.01,2013-12-04 05:24:00,
2013-12-04 00:29:00,32.0,31.2,30.04,NNE,26,0.0,1.0,97,0.00,,---,0.00,VWS V13.01,2013-12-04 05:29:00,
2013-12-04 00:34:00,32.3,31.5,30.04,NNE,27,0.0,5.0,97,0.00,,---,0.00,VWS V13.01,2013-12-04 05:34:00,
2013-12-04 00:39:00,32.4,31.6,30.04,NNE,27,0.0,5.0,97,0.00,,---,0.00,VWS V13.01,2013-12-04 05:39:00,
2013-12-04 00:44:00,32.5,31.7,30.03,NNE,27,0.0,5.0,97,0.00,,---,0.00,VWS V13.01,2013-12-04 05:44:00,
2013-12-04 00:49:00,32.6,31.8,30.03,NNE,27,0.0,5.0,97,0.00,,---,0.00,VWS V13.01,2013-12-04 05:49:00,
2013-12-04 00:55:00,32.8,32.0,30.03,NNE,26,0.0,5.0,97,0.00,,---,0.00,VWS V13.01,2013-12-04 05:55:00,
2013-12-04 01:00:00,32.8,32.0,30.03,NNE,27,3.0,5.0,97,0.00,,---,0.00,VWS V13.01,2013-12-04 06:00:00,
2013-12-04 01:05:00,32.8,32.0,30.03,NNE,27,0.0,4.0,97,0.00,,---,0.00,VWS V13.01,2013-12-04 06:05:00,
2013-12-04 01:10:00,32.9,32.1,30.03,NNE,26,0.0,4.0,97,0.00,,---,0.00,VWS V13.01,2013-12-04 06:10:00,
2013-12-04 01:15:00,32.9,32.1,30.04,NNE,26,0.0,4.0,97,0.00,,---,0.00,VWS V13.01,2013-12-04 06:15:00,
2013-12-04 01:20:00,32.9,32.1,30.03,NNE,27,0.0,4.0,97,0.00,,---,0.00,VWS V13.01,2013-12-04 06:20:00,
2013-12-04 01:25:00,32.6,31.8,30.03,NNE,27,0.0,4.0,97,0.00,,---,0.00,VWS V13.01,2013-12-04 06:25:00,
2013-12-04 01:30:00,32.4,31.4,30.04,NNE,27,0.0,0.0,96,0.00,,---,0.00,VWS V13.01,2013-12-04 06:30:00,
2013-12-04 01:35:00,32.0,31.0,30.03,NNE,27,0.0,0.0,96,0.00,,---,0.00,VWS V13.01,2013-12-04 06:35:00,
2013-12-04 01:40:00,32.0,31.0,30.03,NNE,27,0.0,0.0,96,0.00,,---,0.00,VWS V13.01,2013-12-04 06:40:00,
2013-12-04 01:45:00,32.3,31.3,30.04,NNE,27,0.0,0.0,96,0.00,,---,0.00,VWS V13.01,2013-12-04 06:45:00,
2013-12-04 01:50:00,32.5,31.7,30.03,NNE,26,0.0,0.0,97,0.00,,---,0.00,VWS V13.01,2013-12-04 06:50:00,
2013-12-04 01:55:00,32.6,31.8,30.03,NNE,27,0.0,1.0,97,0.00,,---,0.00,VWS V13.01,2013-12-04 06:55:00,
2013-12-04 02:00:00,32.8,32.0,30.04,NNE,26,0.0,0.0,97,0.00,,---,0.00,VWS V13.01,2013-12-04 07:00:00,
2013-12-04 02:05:00,32.9,32.1,30.04,NNE,26,0.0,0.0,97,0.00,,---,0.00,VWS V13.01,2013-12-04 07:05:00,
2013-12-04 02:10:00,32.9,32.1,30.04,NNE,27,0.0,0.0,97,0.00,,---,0.00,VWS V13.01,2013-12-04 07:10:00,
2013-12-04 02:16:00,32.9,32.1,30.04,NNE,26,0.0,0.0,97,0.00,,---,0.00,VWS V13.01,2013-12-04 07:16:00,
2013-12-04 02:21:00,32.6,31.8,30.05,NNE,26,0.0,0.0,97,0.00,,---,0.00,VWS V13.01,2013-12-04 07:21:00,
2013-12-04 02:26:00,32.3,31.3,30.05,NNE,27,0.0,0.0,96,0.00,,---,0.00,VWS V13.01,2013-12-04 07:26:00,
2013-12-04 02:31:00,32.2,31.2,30.05,NNE,27,0.0,0.0,96,0.00,,---,0.00,VWS V13.01,2013-12-04 07:31:00,
2013-12-04 02:36:00,32.1,31.1,30.06,NNE,27,0.0,0.0,96,0.00,,---,0.00,VWS V13.01,2013-12-04 07:36:00,
2013-12-04 02:41:00,32.0,31.0,30.06,NNE,27,0.0,0.0,96,0.00,,---,0.00,VWS V13.01,2013-12-04 07:41:00,
2013-12-04 02:46:00,32.0,31.0,30.06,NNE,27,0.0,0.0,96,0.00,,---,0.00,VWS V13.01,2013-12-04 07:46:00,
2013-12-04 02:51:00,32.0,31.0,30.06,NNE,27,0.0,0.0,96,0.00,,---,0.00,VWS V13.01,2013-12-04 07:51:00,
2013-12-04 02:56:00,31.9,30.9,30.07,NNE,26,0.0,0.0,96,0.00,,---,0.00,VWS V13.01,2013-12-04 07:56:00,
2013-12-04 03:01:00,31.9,31.1,30.06,NNE,27,0.0,0.0,97,0.00,,---,0.00,VWS V13.01,2013-12-04 08:01:00,
2013-12-04 03:06:00,31.9,31.1,30.06,NNE,26,0.0,0.0,97,0.00,,---,0.00,VWS V13.01,2013-12-04 08:06:00,
2013-12-04 03:11:00,31.9,30.9,30.06,NNE,26,0.0,0.0,96,0.00,,---,0.00,VWS V13.01,2013-12-04 08:11:00,
2013-12-04 03:16:00,31.9,30.9,30.06,NNE,27,0.0,0.0,96,0.00,,---,0.00,VWS V13.01,2013-12-04 08:16:00,
2013-12-04 03:21:00,31.9,30.9,30.06,NNE,26,0.0,0.0,96,0.00,,---,0.00,VWS V13.01,2013-12-04 08:21:00,
2013-12-04 03:26:00,31.9,30.9,30.05,NNE,27,0.0,0.0,96,0.00,,---,0.00,VWS V13.01,2013-12-04 08:26:00,
2013-12-04 03:31:00,31.9,31.1,30.05,NNE,27,0.0,0.0,97,0.00,,---,0.00,VWS V13.01,2013-12-04 08:31:00,
2013-12-04 03:36:00,31.8,31.0,30.04,NNE,27,0.0,0.0,97,0.00,,---,0.00,VWS V13.01,2013-12-04 08:36:00,
2013-12-04 03:42:00,31.8,31.0,30.05,NNE,27,0.0,0.0,97,0.00,,---,0.00,VWS V13.01,2013-12-04 08:42:00,
2013-12-04 03:47:00,31.7,31.0,30.05,NNE,27,0.0,0.0,97,0.00,,---,0.00,VWS V13.01,2013-12-04 08:47:00,
2013-12-04 03:52:00,31.7,31.0,30.04,NNE,27,0.0,0.0,97,0.00,,---,0.00,VWS V13.01,2013-12-04 08:52:00,
2013-12-04 03:57:00,31.6,30.9,30.04,NNE,27,0.0,0.0,97,0.00,,---,0.00,VWS V13.01,2013-12-04 08:57:00,
2013-12-04 04:02:00,31.5,30.8,30.04,NNE,26,0.0,1.0,97,0.00,,---,0.00,VWS V13.01,2013-12-04 09:02:00,
2013-12-04 04:07:00,31.5,30.8,30.03,NNE,27,0.0,1.0,97,0.00,,---,0.00,VWS V13.01,2013-12-04 09:07:00,
2013-12-04 04:12:00,31.6,30.9,30.03,NNE,27,0.0,1.0,97,0.00,,---,0.00,VWS V13.01,2013-12-04 09:12:00,
2013-12-04 04:17:00,31.7,31.0,30.02,NNE,26,0.0,1.0,97,0.00,,---,0.00,VWS V13.01,2013-12-04 09:17:00,
2013-12-04 04:22:00,31.4,30.6,30.02,NNE,27,0.0,3.0,97,0.00,,---,0.00,VWS V13.01,2013-12-04 09:22:00,
2013-12-04 04:27:00,31.1,30.4,30.02,NNE,27,0.0,3.0,97,0.00,,---,0.00,VWS V13.01,2013-12-04 09:27:00,
2013-12-04 04:32:00,31.1,30.4,30.02,NNE,27,2.0,5.0,97,0.00,,---,0.00,VWS V13.01,2013-12-04 09:32:00,
2013-12-04 04:37:00,31.9,31.1,30.03,NNE,27,2.0,5.0,97,0.00,,---,0.00,VWS V13.01,2013-12-04 09:37:00,
2013-12-04 04:42:00,32.2,31.5,30.02,NNE,27,0.0,5.0,97,0.00,,---,0.00,VWS V13.01,2013-12-04 09:42:00,
2013-12-04 04:47:00,32.1,31.4,30.02,NNE,26,0.0,5.0,97,0.00,,---,0.00,VWS V13.01,2013-12-04 09:47:00,
2013-12-04 04:52:00,31.6,30.9,30.02,NNE,27,0.0,5.0,97,0.00,,---,0.00,VWS V13.01,2013-12-04 09:52:00,
2013-12-04 04:58:00,30.5,29.5,30.02,NNE,27,0.0,5.0,96,0.00,,---,0.00,VWS V13.01,2013-12-04 09:58:00,
2013-12-04 05:03:00,29.9,28.9,30.02,NNE,27,0.0,0.0,96,0.00,,---,0.00,VWS V13.01,2013-12-04 10:03:00,
2013-12-04 05:08:00,29.5,28.5,30.01,NNE,26,0.0,0.0,96,0.00,,---,0.00,VWS V13.01,2013-12-04 10:08:00,
2013-12-04 05:13:00,29.2,28.2,30.01,NNE,26,0.0,0.0,96,0.00,,---,0.00,VWS V13.01,2013-12-04 10:13:00,
2013-12-04 05:18:00,29.1,28.1,30.01,NNE,27,0.0,0.0,96,0.00,,---,0.00,VWS V13.01,2013-12-04 10:18:00,
2013-12-04 05:23:00,28.8,27.8,30.01,NNE,26,0.0,0.0,96,0.00,,---,0.00,VWS V13.01,2013-12-04 10:23:00,
2013-12-04 05:28:00,28.5,27.5,30.01,NNE,27,0.0,0.0,96,0.00,,---,0.00,VWS V13.01,2013-12-04 10:28:00,
2013-12-04 05:33:00,28.1,27.1,30.01,NNE,27,0.0,0.0,96,0.00,,---,0.00,VWS V13.01,2013-12-04 10:33:00,
2013-12-04 05:38:00,28.1,27.1,30.02,NNE,26,0.0,0.0,96,0.00,,---,0.00,VWS V13.01,2013-12-04 10:38:00,
2013-12-04 05:43:00,27.6,26.6,30.02,NNE,26,0.0,0.0,96,0.00,,---,0.00,VWS V13.01,2013-12-04 10:43:00,
2013-12-04 05:48:00,27.1,26.1,30.02,NNE,27,0.0,0.0,96,0.00,,---,0.00,VWS V13.01,2013-12-04 10:48:00,
2013-12-04 05:53:00,26.9,25.9,30.02,NNE,26,0.0,0.0,96,0.00,,---,0.00,VWS V13.01,2013-12-04 10:53:00,
2013-12-04 05:58:00,26.6,25.6,30.02,NNE,27,0.0,0.0,96,0.00,,---,0.00,VWS V13.01,2013-12-04 10:58:00,
2013-12-04 06:03:00,26.5,25.5,30.02,NNE,27,0.0,0.0,96,0.00,,---,0.00,VWS V13.01,2013-12-04 11:03:00,
2013-12-04 06:08:00,26.4,25.4,30.02,NNE,27,0.0,0.0,96,0.00,,---,0.00,VWS V13.01,2013-12-04 11:08:00,
2013-12-04 06:14:00,26.4,25.4,30.02,NNE,26,0.0,0.0,96,0.00,,---,0.00,VWS V13.01,2013-12-04 11:14:00,
2013-12-04 06:19:00,26.3,25.3,30.02,NNE,27,0.0,0.0,96,0.00,,---,0.00,VWS V13.01,2013-12-04 11:19:00,
2013-12-04 06:24:00,26.4,25.7,30.03,NNE,27,0.0,0.0,97,0.00,,---,0.00,VWS V13.01,2013-12-04 11:24:00,
2013-12-04 06:29:00,26.5,25.8,30.03,NNE,27,0.0,0.0,97,0.00,,---,0.00,VWS V13.01,2013-12-04 11:29:00,
2013-12-04 06:34:00,26.6,25.9,30.04,NNE,27,0.0,0.0,97,0.00,,---,0.00,VWS V13.01,2013-12-04 11:34:00,
2013-12-04 06:39:00,26.8,26.1,30.04,NNE,27,0.0,0.0,97,0.00,,---,0.00,VWS V13.01,2013-12-04 11:39:00,
2013-12-04 06:44:00,26.9,26.2,30.04,NNE,27,0.0,0.0,97,0.00,,---,0.00,VWS V13.01,2013-12-04 11:44:00,
2013-12-04 06:49:00,27.0,26.3,30.05,NNE,26,0.0,0.0,97,0.00,,---,0.00,VWS V13.01,2013-12-04 11:49:00,
2013-12-04 06:54:00,27.1,26.4,30.05,NNE,27,0.0,0.0,97,0.00,,---,0.00,VWS V13.01,2013-12-04 11:54:00,
2013-12-04 06:59:00,27.2,26.5,30.05,NNE,26,0.0,0.0,97,0.00,,---,0.00,VWS V13.01,2013-12-04 11:59:00,
2013-12-04 07:04:00,27.2,26.5,30.06,NNE,26,0.0,0.0,97,0.00,,---,0.00,VWS V13.01,2013-12-04 12:04:00,
2013-12-04 07:09:00,27.3,26.6,30.06,NNE,27,0.0,0.0,97,0.00,,---,0.00,VWS V13.01,2013-12-04 12:09:00,
2013-12-04 07:14:00,27.5,26.8,30.06,NNE,27,0.0,0.0,97,0.00,,---,0.00,VWS V13.01,2013-12-04 12:14:00,
2013-12-04 07:19:00,27.7,27.0,30.06,NNE,26,0.0,0.0,97,0.00,,---,0.00,VWS V13.01,2013-12-04 12:19:00,
2013-12-04 07:24:00,27.9,27.2,30.06,NNE,27,0.0,0.0,97,0.00,,---,0.00,VWS V13.01,2013-12-04 12:24:00,
2013-12-04 07:29:00,28.1,27.4,30.06,NNE,27,0.0,0.0,97,0.00,,---,0.00,VWS V13.01,2013-12-04 12:29:00,
2013-12-04 07:35:00,28.3,27.6,30.07,NNE,27,0.0,0.0,97,0.00,,---,0.00,VWS V13.01,2013-12-04 12:35:00,
2013-12-04 07:40:00,28.4,27.7,30.07,NNE,26,0.0,0.0,97,0.00,,---,0.00,VWS V13.01,2013-12-04 12:40:00,
2013-12-04 07:45:00,28.5,27.8,30.07,NNE,27,0.0,0.0,97,0.00,,---,0.00,VWS V13.01,2013-12-04 12:45:00,
2013-12-04 07:50:00,28.7,28.0,30.07,NNE,27,0.0,0.0,97,0.00,,---,0.00,VWS V13.01,2013-12-04 12:50:00,
2013-12-04 07:55:00,28.9,28.2,30.07,NNE,26,0.0,0.0,97,0.00,,---,0.00,VWS V13.01,2013-12-04 12:55:00,
2013-12-04 08:00:00,29.2,28.5,30.07,NNE,27,0.0,0.0,97,0.00,,---,0.00,VWS V13.01,2013-12-04 13:00:00,
2013-12-04 08:05:00,29.3,28.6,30.07,NNE,27,0.0,0.0,97,0.00,,---,0.00,VWS V13.01,2013-12-04 13:05:00,
2013-12-04 08:10:00,29.5,28.8,30.07,NNE,27,0.0,1.0,97,0.00,,---,0.00,VWS V13.01,2013-12-04 13:10:00,
2013-12-04 08:15:00,29.7,29.2,30.08,NNE,27,0.0,1.0,98,0.00,,---,0.00,VWS V13.01,2013-12-04 13:15:00,
2013-12-04 08:20:00,29.9,29.4,30.08,NNE,26,0.0,1.0,98,0.00,,---,0.00,VWS V13.01,2013-12-04 13:20:00,
2013-12-04 08:25:00,30.1,29.4,30.08,NNE,27,0.0,1.0,97,0.00,,---,0.00,VWS V13.01,2013-12-04 13:25:00,
2013-12-04 08:30:00,30.3,29.8,30.09,NNE,26,0.0,0.0,98,0.00,,---,0.00,VWS V13.01,2013-12-04 13:30:00,
2013-12-04 08:35:00,30.5,30.0,30.08,NNE,27,0.0,0.0,98,0.00,,---,0.00,VWS V13.01,2013-12-04 13:35:00,
2013-12-04 08:40:00,30.8,30.3,30.08,NNE,27,0.0,0.0,98,0.00,,---,0.00,VWS V13.01,2013-12-04 13:40:00,
2013-12-04 08:45:00,31.1,30.6,30.08,NNE,27,0.0,5.0,98,0.00,,---,0.00,VWS V13.01,2013-12-04 13:45:00,
2013-12-04 08:51:00,31.2,30.7,30.09,NNE,27,0.0,5.0,98,0.00,,---,0.00,VWS V13.01,2013-12-04 13:51:00,
2013-12-04 08:56:00,31.4,30.9,30.09,NNE,27,0.0,5.0,98,0.00,,---,0.00,VWS V13.01,2013-12-04 13:56:00,
2013-12-04 09:01:00,31.6,31.1,30.09,NNE,27,0.0,0.0,98,0.00,,---,0.00,VWS V13.01,2013-12-04 14:01:00,
2013-12-04 09:06:00,31.9,31.4,30.09,NNE,26,0.0,0.0,98,0.00,,---,0.00,VWS V13.01,2013-12-04 14:06:00,
2013-12-04 09:11:00,32.0,31.5,30.09,NNE,27,0.0,0.0,98,0.00,,---,0.00,VWS V13.01,2013-12-04 14:11:00,
2013-12-04 09:16:00,31.9,31.4,30.09,NNE,27,2.0,5.0,98,0.00,,---,0.00,VWS V13.01,2013-12-04 14:16:00,
2013-12-04 09:21:00,31.9,31.4,30.09,NNE,26,0.0,5.0,98,0.00,,---,0.00,VWS V13.01,2013-12-04 14:21:00,
2013-12-04 09:26:00,32.0,31.5,30.09,NNE,27,0.0,5.0,98,0.00,,---,0.00,VWS V13.01,2013-12-04 14:26:00,
2013-12-04 09:31:00,32.1,31.6,30.09,NNE,26,0.0,0.0,98,0.00,,---,0.00,VWS V13.01,2013-12-04 14:31:00,
2013-12-04 09:36:00,32.3,31.8,30.08,NNE,26,0.0,0.0,98,0.00,,---,0.00,VWS V13.01,2013-12-04 14:36:00,
2013-12-04 09:41:00,32.5,32.0,30.08,NNE,27,0.0,0.0,98,0.00,,---,0.00,VWS V13.01,2013-12-04 14:41:00,
2013-12-04 09:46:00,32.8,32.3,30.08,NNE,26,0.0,0.0,98,0.00,,---,0.00,VWS V13.01,2013-12-04 14:46:00,
2013-12-04 09:51:00,32.9,32.4,30.08,NNE,27,0.0,0.0,98,0.00,,---,0.00,VWS V13.01,2013-12-04 14:51:00,
2013-12-04 09:56:00,33.0,32.5,30.08,NNE,27,0.0,1.0,98,0.00,,---,0.00,VWS V13.01,2013-12-04 14:56:00,
2013-12-04 10:02:00,33.3,32.8,30.08,NNE,27,0.0,5.0,98,0.00,,---,0.00,VWS V13.01,2013-12-04 15:02:00,
2013-12-04 10:07:00,33.8,33.3,30.08,NNE,27,0.0,5.0,98,0.00,,---,0.00,VWS V13.01,2013-12-04 15:07:00,
2013-12-04 10:12:00,34.1,33.6,30.08,NNE,27,0.0,5.0,98,0.00,,---,0.00,VWS V13.01,2013-12-04 15:12:00,
2013-12-04 10:17:00,34.4,33.9,30.07,NNE,27,0.0,5.0,98,0.00,,---,0.00,VWS V13.01,2013-12-04 15:17:00,
2013-12-04 10:22:00,34.4,33.9,30.07,NNE,27,0.0,5.0,98,0.00,,---,0.00,VWS V13.01,2013-12-04 15:22:00,
2013-12-04 10:27:00,34.6,34.1,30.07,NNE,26,0.0,5.0,98,0.00,,---,0.00,VWS V13.01,2013-12-04 15:27:00,
2013-12-04 10:32:00,35.0,34.5,30.07,NNE,27,3.0,4.0,98,0.00,,---,0.00,VWS V13.01,2013-12-04 15:32:00,
2013-12-04 10:37:00,35.5,35.0,30.07,NNE,27,0.0,4.0,98,0.00,,---,0.00,VWS V13.01,2013-12-04 15:37:00,
2013-12-04 10:42:00,35.8,35.0,30.07,NNE,26,0.0,4.0,97,0.00,,---,0.00,VWS V13.01,2013-12-04 15:42:00,
2013-12-04 10:47:00,36.3,35.5,30.07,NNE,27,0.0,4.0,97,0.01,,---,0.01,VWS V13.01,2013-12-04 15:47:00,
2013-12-04 10:52:00,36.7,35.7,30.06,NNE,26,0.0,4.0,96,0.01,,---,0.01,VWS V13.01,2013-12-04 15:52:00,
2013-12-04 10:58:00,37.1,36.1,30.05,NNE,27,0.0,4.0,96,0.01,,---,0.01,VWS V13.01,2013-12-04 15:58:00,
2013-12-04 11:03:00,37.6,36.3,30.04,NNE,27,0.0,0.0,95,0.01,,---,0.01,VWS V13.01,2013-12-04 16:03:00,
2013-12-04 11:08:00,37.9,36.3,30.04,NNE,26,0.0,0.0,94,0.01,,---,0.01,VWS V13.01,2013-12-04 16:08:00,
2013-12-04 11:13:00,38.2,36.4,30.04,NNE,27,0.0,0.0,93,0.01,,---,0.01,VWS V13.01,2013-12-04 16:13:00,
2013-12-04 11:18:00,38.6,36.5,30.04,NNE,27,0.0,1.0,92,0.01,,---,0.01,VWS V13.01,2013-12-04 16:18:00,
2013-12-04 11:23:00,39.0,36.9,30.03,NNE,26,0.0,1.0,92,0.01,,---,0.01,VWS V13.01,2013-12-04 16:23:00,
2013-12-04 11:28:00,39.5,37.1,30.03,NNE,27,0.0,1.0,91,0.01,,---,0.01,VWS V13.01,2013-12-04 16:28:00,
2013-12-04 11:33:00,39.9,37.2,30.02,NNE,26,0.0,1.0,90,0.01,,---,0.01,VWS V13.01,2013-12-04 16:33:00,
2013-12-04 11:38:00,40.5,37.8,30.02,NNE,27,0.0,1.0,90,0.01,,---,0.01,VWS V13.01,2013-12-04 16:38:00,
2013-12-04 11:43:00,40.9,37.6,30.02,NNE,27,0.0,1.0,88,0.01,,---,0.01,VWS V13.01,2013-12-04 16:43:00,
2013-12-04 11:48:00,40.9,37.3,30.02,NNE,26,0.0,1.0,87,0.01,,---,0.01,VWS V13.01,2013-12-04 16:48:00,
2013-12-04 11:53:00,41.0,37.7,30.01,NNE,27,0.0,1.0,88,0.01,,---,0.01,VWS V13.01,2013-12-04 16:53:00,
2013-12-04 11:58:00,40.9,37.3,30.01,NNE,26,0.0,1.0,87,0.01,,---,0.01,VWS V13.01,2013-12-04 16:58:00,
2013-12-04 12:03:00,40.9,37.6,30.01,NNE,26,0.0,1.0,88,0.00,,---,0.01,VWS V13.01,2013-12-04 17:03:00,
2013-12-04 12:08:00,41.1,37.5,30.01,NNE,27,0.0,1.0,87,0.00,,---,0.01,VWS V13.01,2013-12-04 17:08:00,
2013-12-04 12:13:00,41.0,37.4,30.01,NNE,26,0.0,3.0,87,0.00,,---,0.01,VWS V13.01,2013-12-04 17:13:00,
2013-12-04 12:19:00,41.0,37.7,30.01,NNE,27,0.0,3.0,88,0.00,,---,0.01,VWS V13.01,2013-12-04 17:19:00,
2013-12-04 12:24:00,41.0,37.4,30.00,NNE,27,0.0,3.0,87,0.00,,---,0.01,VWS V13.01,2013-12-04 17:24:00,
2013-12-04 12:29:00,41.1,37.5,30.00,NNE,26,0.0,3.0,87,0.00,,---,0.01,VWS V13.01,2013-12-04 17:29:00,
2013-12-04 12:34:00,41.0,37.4,30.00,NNE,27,0.0,0.0,87,0.00,,---,0.01,VWS V13.01,2013-12-04 17:34:00,
2013-12-04 12:39:00,41.2,37.6,30.00,NNE,27,0.0,0.0,87,0.00,,---,0.01,VWS V13.01,2013-12-04 17:39:00,
2013-12-04 12:44:00,41.0,37.4,29.99,NNE,27,0.0,0.0,87,0.00,,---,0.01,VWS V13.01,2013-12-04 17:44:00,
2013-12-04 12:49:00,41.2,37.9,29.99,NNE,27,0.0,0.0,88,0.00,,---,0.01,VWS V13.01,2013-12-04 17:49:00,
2013-12-04 12:54:00,41.1,37.5,29.99,NNE,26,0.0,1.0,87,0.00,,---,0.01,VWS V13.01,2013-12-04 17:54:00,
2013-12-04 12:59:00,41.5,37.9,29.99,NNE,27,0.0,1.0,87,0.00,,---,0.01,VWS V13.01,2013-12-04 17:59:00,
2013-12-04 13:04:00,42.0,38.4,29.99,NNE,27,0.0,1.0,87,0.00,,---,0.01,VWS V13.01,2013-12-04 18:04:00,
2013-12-04 13:09:00,41.9,38.0,29.99,NNE,26,0.0,1.0,86,0.00,,---,0.01,VWS V13.01,2013-12-04 18:09:00,
2013-12-04 13:14:00,41.9,38.0,29.99,NNE,27,0.0,1.0,86,0.00,,---,0.01,VWS V13.01,2013-12-04 18:14:00,
2013-12-04 13:19:00,42.3,38.4,29.99,NNE,26,0.0,5.0,86,0.00,,---,0.01,VWS V13.01,2013-12-04 18:19:00,
2013-12-04 13:24:00,42.5,38.3,29.98,NNE,26,0.0,5.0,85,0.00,,---,0.01,VWS V13.01,2013-12-04 18:24:00,
2013-12-04 13:29:00,42.5,38.3,29.98,NNE,26,0.0,5.0,85,0.00,,---,0.01,VWS V13.01,2013-12-04 18:29:00,
2013-12-04 13:34:00,43.0,39.1,29.98,NNE,27,0.0,2.0,86,0.00,,---,0.01,VWS V13.01,2013-12-04 18:34:00,
2013-12-04 13:40:00,43.0,38.5,29.98,NNE,27,0.0,2.0,84,0.00,,---,0.01,VWS V13.01,2013-12-04 18:40:00,
2013-12-04 13:45:00,43.2,39.3,29.98,NNE,27,0.0,3.0,86,0.00,,---,0.01,VWS V13.01,2013-12-04 18:45:00,
2013-12-04 13:50:00,43.6,39.1,29.98,NNE,27,0.0,3.0,84,0.00,,---,0.01,VWS V13.01,2013-12-04 18:50:00,
2013-12-04 13:55:00,43.3,38.8,29.97,NNE,27,0.0,3.0,84,0.00,,---,0.01,VWS V13.01,2013-12-04 18:55:00,
2013-12-04 14:00:00,43.7,40.1,29.97,NNE,27,0.0,3.0,87,0.00,,---,0.01,VWS V13.01,2013-12-04 19:00:00,
2013-12-04 14:05:00,44.4,39.6,29.97,NNE,27,3.0,4.0,83,0.00,,---,0.01,VWS V13.01,2013-12-04 19:05:00,
2013-12-04 14:10:00,44.7,39.2,29.97,NNE,28,0.0,5.0,81,0.00,,---,0.01,VWS V13.01,2013-12-04 19:10:00,
2013-12-04 14:15:00,46.0,40.8,29.96,North,360,0.0,6.0,82,0.00,,---,0.01,VWS V13.01,2013-12-04 19:15:00,
2013-12-04 14:20:00,45.4,39.3,29.96,North,360,0.0,6.0,79,0.00,,---,0.01,VWS V13.01,2013-12-04 19:20:00,
2013-12-04 14:25:00,44.3,39.2,29.95,North,360,0.0,6.0,82,0.00,,---,0.01,VWS V13.01,2013-12-04 19:25:00,
2013-12-04 14:30:00,43.2,38.4,29.95,North,360,0.0,0.0,83,0.00,,---,0.01,VWS V13.01,2013-12-04 19:30:00,
2013-12-04 14:35:00,42.4,37.6,29.94,North,360,0.0,0.0,83,0.00,,---,0.01,VWS V13.01,2013-12-04 19:35:00,
2013-12-04 14:40:00,42.0,37.8,29.94,North,360,0.0,0.0,85,0.00,,---,0.01,VWS V13.01,2013-12-04 19:40:00,
2013-12-04 14:45:00,41.5,37.3,29.94,North,360,0.0,1.0,85,0.00,,---,0.01,VWS V13.01,2013-12-04 19:45:00,
2013-12-04 14:50:00,41.4,37.8,29.94,North,360,0.0,1.0,87,0.00,,---,0.01,VWS V13.01,2013-12-04 19:50:00,
2013-12-04 14:55:00,41.1,37.5,29.94,North,360,0.0,1.0,87,0.00,,---,0.01,VWS V13.01,2013-12-04 19:55:00,
2013-12-04 15:01:00,40.9,37.3,29.95,North,360,0.0,0.0,87,0.00,,---,0.01,VWS V13.01,2013-12-04 20:01:00,
2013-12-04 15:06:00,40.5,36.9,29.95,North,360,0.0,0.0,87,0.00,,---,0.01,VWS V13.01,2013-12-04 20:06:00,
2013-12-04 15:11:00,40.2,36.7,29.95,North,360,0.0,1.0,87,0.00,,---,0.01,VWS V13.01,2013-12-04 20:11:00,
2013-12-04 15:16:00,40.0,36.7,29.95,North,360,0.0,1.0,88,0.00,,---,0.01,VWS V13.01,2013-12-04 20:16:00,
2013-12-04 15:21:00,39.9,36.9,29.95,North,360,0.0,1.0,89,0.00,,---,0.01,VWS V13.01,2013-12-04 20:21:00,
2013-12-04 15:26:00,39.6,36.6,29.95,North,360,0.0,1.0,89,0.00,,---,0.01,VWS V13.01,2013-12-04 20:26:00,
2013-12-04 15:31:00,39.6,36.9,29.95,North,360,0.0,0.0,90,0.00,,---,0.01,VWS V13.01,2013-12-04 20:31:00,
2013-12-04 15:36:00,39.4,36.4,29.95,North,360,0.0,0.0,89,0.00,,---,0.01,VWS V13.01,2013-12-04 20:36:00,
2013-12-04 15:41:00,39.1,36.1,29.95,North,360,0.0,0.0,89,0.00,,---,0.01,VWS V13.01,2013-12-04 20:41:00,
2013-12-04 15:46:00,39.0,36.3,29.95,North,360,0.0,0.0,90,0.00,,---,0.01,VWS V13.01,2013-12-04 20:46:00,
2013-12-04 15:51:00,38.7,36.0,29.96,North,360,0.0,0.0,90,0.00,,---,0.01,VWS V13.01,2013-12-04 20:51:00,
2013-12-04 15:56:00,38.4,35.7,29.95,North,360,0.0,0.0,90,0.00,,---,0.01,VWS V13.01,2013-12-04 20:56:00,
2013-12-04 16:01:00,38.2,35.8,29.96,North,360,0.0,0.0,91,0.00,,---,0.01,VWS V13.01,2013-12-04 21:01:00,
2013-12-04 16:06:00,38.0,35.6,29.96,North,360,0.0,0.0,91,0.00,,---,0.01,VWS V13.01,2013-12-04 21:06:00,
2013-12-04 16:11:00,37.5,34.8,29.96,North,360,0.0,0.0,90,0.00,,---,0.01,VWS V13.01,2013-12-04 21:11:00,
2013-12-04 16:16:00,37.1,34.4,29.96,North,360,0.0,0.0,90,0.00,,---,0.01,VWS V13.01,2013-12-04 21:16:00,
2013-12-04 16:22:00,36.9,34.5,29.96,North,360,0.0,0.0,91,0.00,,---,0.01,VWS V13.01,2013-12-04 21:22:00,
2013-12-04 16:27:00,36.7,34.6,29.96,North,360,0.0,0.0,92,0.00,,---,0.01,VWS V13.01,2013-12-04 21:27:00,
2013-12-04 16:32:00,36.4,34.3,29.96,North,360,0.0,0.0,92,0.00,,---,0.01,VWS V13.01,2013-12-04 21:32:00,
2013-12-04 16:37:00,36.2,34.1,29.96,North,360,0.0,0.0,92,0.00,,---,0.01,VWS V13.01,2013-12-04 21:37:00,
2013-12-04 16:42:00,35.9,33.8,29.97,North,360,0.0,0.0,92,0.00,,---,0.01,VWS V13.01,2013-12-04 21:42:00,
2013-12-04 16:47:00,35.7,33.6,29.97,North,360,0.0,0.0,92,0.00,,---,0.01,VWS V13.01,2013-12-04 21:47:00,
2013-12-04 16:52:00,35.5,33.4,29.97,North,360,0.0,0.0,92,0.00,,---,0.01,VWS V13.01,2013-12-04 21:52:00,
2013-12-04 16:57:00,35.3,33.2,29.97,North,360,0.0,0.0,92,0.00,,---,0.01,VWS V13.01,2013-12-04 21:57:00,
2013-12-04 17:02:00,35.1,33.3,29.97,North,360,0.0,1.0,93,0.00,,---,0.01,VWS V13.01,2013-12-04 22:02:00,
2013-12-04 17:07:00,34.8,33.0,29.97,North,360,0.0,1.0,93,0.00,,---,0.01,VWS V13.01,2013-12-04 22:07:00,
2013-12-04 17:12:00,34.4,32.6,29.97,North,360,0.0,1.0,93,0.00,,---,0.01,VWS V13.01,2013-12-04 22:12:00,
2013-12-04 17:17:00,34.4,32.6,29.97,North,360,0.0,1.0,93,0.00,,---,0.01,VWS V13.01,2013-12-04 22:17:00,
2013-12-04 17:22:00,34.2,32.4,29.97,North,360,0.0,1.0,93,0.00,,---,0.01,VWS V13.01,2013-12-04 22:22:00,
2013-12-04 17:27:00,34.1,32.3,29.97,North,360,0.0,1.0,93,0.00,,---,0.01,VWS V13.01,2013-12-04 22:27:00,
2013-12-04 17:32:00,34.3,32.8,29.97,North,360,0.0,0.0,94,0.00,,---,0.01,VWS V13.01,2013-12-04 22:32:00,
2013-12-04 17:38:00,34.2,32.7,29.97,North,360,0.0,0.0,94,0.00,,---,0.01,VWS V13.01,2013-12-04 22:38:00,
2013-12-04 17:43:00,33.7,32.2,29.97,North,360,0.0,0.0,94,0.00,,---,0.01,VWS V13.01,2013-12-04 22:43:00,
2013-12-04 17:48:00,33.8,32.5,29.96,North,360,0.0,0.0,95,0.00,,---,0.01,VWS V13.01,2013-12-04 22:48:00,
2013-12-04 17:53:00,33.7,32.4,29.96,North,360,0.0,0.0,95,0.00,,---,0.01,VWS V13.01,2013-12-04 22:53:00,
2013-12-04 17:58:00,33.7,32.4,29.96,North,360,0.0,1.0,95,0.00,,---,0.01,VWS V13.01,2013-12-04 22:58:00,
2013-12-04 18:03:00,33.8,32.5,29.96,North,360,0.0,0.0,95,0.00,,---,0.01,VWS V13.01,2013-12-04 23:03:00,
2013-12-04 18:08:00,33.8,32.5,29.96,North,360,0.0,0.0,95,0.00,,---,0.01,VWS V13.01,2013-12-04 23:08:00,
2013-12-04 18:13:00,33.8,32.5,29.96,North,360,0.0,0.0,95,0.00,,---,0.01,VWS V13.01,2013-12-04 23:13:00,
2013-12-04 18:18:00,33.7,32.4,29.96,North,360,0.0,0.0,95,0.00,,---,0.01,VWS V13.01,2013-12-04 23:18:00,
2013-12-04 18:23:00,33.5,32.2,29.96,North,360,0.0,0.0,95,0.00,,---,0.01,VWS V13.01,2013-12-04 23:23:00,
2013-12-04 18:28:00,33.5,32.2,29.96,North,360,0.0,0.0,95,0.00,,---,0.01,VWS V13.01,2013-12-04 23:28:00,
2013-12-04 18:33:00,33.4,32.1,29.96,North,360,0.0,0.0,95,0.00,,---,0.01,VWS V13.01,2013-12-04 23:33:00,
2013-12-04 18:38:00,33.3,32.0,29.96,North,360,0.0,0.0,95,0.00,,---,0.01,VWS V13.01,2013-12-04 23:38:00,
2013-12-04 18:44:00,33.4,32.1,29.96,North,360,0.0,0.0,95,0.00,,---,0.01,VWS V13.01,2013-12-04 23:44:00,
2013-12-04 18:49:00,33.3,32.0,29.96,North,360,0.0,0.0,95,0.00,,---,0.01,VWS V13.01,2013-12-04 23:49:00,
2013-12-04 18:54:00,33.1,31.8,29.95,North,360,0.0,0.0,95,0.00,,---,0.01,VWS V13.01,2013-12-04 23:54:00,
2013-12-04 18:59:00,32.9,31.6,29.94,North,360,0.0,0.0,95,0.00,,---,0.01,VWS V13.01,2013-12-04 23:59:00,
2013-12-04 19:04:00,32.8,31.5,29.94,North,360,0.0,0.0,95,0.00,,---,0.01,VWS V13.01,2013-12-05 00:04:00,
2013-12-04 19:09:00,32.8,31.5,29.94,North,360,0.0,0.0,95,0.00,,---,0.01,VWS V13.01,2013-12-05 00:09:00,
2013-12-04 19:14:00,32.8,31.8,29.94,North,360,0.0,0.0,96,0.00,,---,0.01,VWS V13.01,2013-12-05 00:14:00,
2013-12-04 19:19:00,32.9,31.9,29.94,North,360,0.0,0.0,96,0.00,,---,0.01,VWS V13.01,2013-12-05 00:19:00,
2013-12-04 19:24:00,32.7,31.7,29.95,North,360,0.0,0.0,96,0.00,,---,0.01,VWS V13.01,2013-12-05 00:24:00,
2013-12-04 19:29:00,32.5,31.5,29.95,North,360,0.0,0.0,96,0.00,,---,0.01,VWS V13.01,2013-12-05 00:29:00,
2013-12-04 19:34:00,32.4,31.1,29.95,North,360,0.0,0.0,95,0.00,,---,0.01,VWS V13.01,2013-12-05 00:34:00,
2013-12-04 19:39:00,32.5,31.5,29.95,North,360,0.0,0.0,96,0.00,,---,0.01,VWS V13.01,2013-12-05 00:39:00,
2013-12-04 19:45:00,32.5,31.5,29.95,North,360,0.0,0.0,96,0.00,,---,0.01,VWS V13.01,2013-12-05 00:45:00,
2013-12-04 19:50:00,32.0,31.0,29.94,North,360,0.0,0.0,96,0.00,,---,0.01,VWS V13.01,2013-12-05 00:50:00,
2013-12-04 19:55:00,32.0,31.0,29.95,North,360,0.0,0.0,96,0.00,,---,0.01,VWS V13.01,2013-12-05 00:55:00,
2013-12-04 20:00:00,32.1,31.1,29.95,North,360,0.0,0.0,96,0.00,,---,0.01,VWS V13.01,2013-12-05 01:00:00,
2013-12-04 20:05:00,32.1,31.1,29.94,North,360,0.0,0.0,96,0.00,,---,0.01,VWS V13.01,2013-12-05 01:05:00,
2013-12-04 20:10:00,32.0,31.0,29.94,North,360,0.0,0.0,96,0.00,,---,0.01,VWS V13.01,2013-12-05 01:10:00,
2013-12-04 20:15:00,32.0,31.0,29.94,North,360,0.0,0.0,96,0.00,,---,0.01,VWS V13.01,2013-12-05 01:15:00,
2013-12-04 20:20:00,32.1,31.1,29.94,North,360,0.0,0.0,96,0.00,,---,0.01,VWS V13.01,2013-12-05 01:20:00,
2013-12-04 20:25:00,32.0,31.0,29.94,North,360,0.0,0.0,96,0.00,,---,0.01,VWS V13.01,2013-12-05 01:25:00,
2013-12-04 20:30:00,32.1,31.1,29.94,North,360,0.0,0.0,96,0.00,,---,0.01,VWS V13.01,2013-12-05 01:30:00,
2013-12-04 20:35:00,32.0,31.0,29.94,North,360,0.0,1.0,96,0.00,,---,0.01,VWS V13.01,2013-12-05 01:35:00,
2013-12-04 20:40:00,32.0,31.0,29.94,North,360,0.0,1.0,96,0.00,,---,0.01,VWS V13.01,2013-12-05 01:40:00,
2013-12-04 20:45:00,32.0,31.0,29.94,North,360,0.0,1.0,96,0.00,,---,0.01,VWS V13.01,2013-12-05 01:45:00,
2013-12-04 20:50:00,32.2,31.2,29.94,North,360,0.0,1.0,96,0.00,,---,0.01,VWS V13.01,2013-12-05 01:50:00,
2013-12-04 20:56:00,32.3,31.3,29.94,North,360,0.0,1.0,96,0.00,,---,0.01,VWS V13.01,2013-12-05 01:56:00,
2013-12-04 21:01:00,32.3,31.3,29.94,North,360,0.0,0.0,96,0.00,,---,0.01,VWS V13.01,2013-12-05 02:01:00,
2013-12-04 21:06:00,32.3,31.3,29.94,North,360,0.0,0.0,96,0.00,,---,0.01,VWS V13.01,2013-12-05 02:06:00,
2013-12-04 21:11:00,32.4,31.4,29.93,North,360,0.0,0.0,96,0.00,,---,0.01,VWS V13.01,2013-12-05 02:11:00,
2013-12-04 21:16:00,32.9,32.1,29.94,North,360,0.0,0.0,97,0.00,,---,0.01,VWS V13.01,2013-12-05 02:16:00,
2013-12-04 21:21:00,32.8,32.0,29.94,North,360,0.0,0.0,97,0.00,,---,0.01,VWS V13.01,2013-12-05 02:21:00,
2013-12-04 21:26:00,32.7,31.9,29.94,North,360,0.0,0.0,97,0.00,,---,0.01,VWS V13.01,2013-12-05 02:26:00,
2013-12-04 21:31:00,32.5,31.7,29.94,North,360,0.0,0.0,97,0.00,,---,0.01,VWS V13.01,2013-12-05 02:31:00,
2013-12-04 21:36:00,32.7,31.9,29.94,North,360,0.0,0.0,97,0.00,,---,0.01,VWS V13.01,2013-12-05 02:36:00,
2013-12-04 21:41:00,32.8,32.0,29.94,North,360,0.0,0.0,97,0.00,,---,0.01,VWS V13.01,2013-12-05 02:41:00,
2013-12-04 21:46:00,32.7,31.9,29.94,North,360,0.0,0.0,97,0.00,,---,0.01,VWS V13.01,2013-12-05 02:46:00,
2013-12-04 21:51:00,32.9,32.1,29.94,North,360,0.0,0.0,97,0.00,,---,0.01,VWS V13.01,2013-12-05 02:51:00,
2013-12-04 21:56:00,33.3,32.5,29.93,North,360,0.0,5.0,97,0.00,,---,0.01,VWS V13.01,2013-12-05 02:56:00,
2013-12-04 22:01:00,33.5,32.7,29.93,North,360,0.0,0.0,97,0.00,,---,0.01,VWS V13.01,2013-12-05 03:01:00,
2013-12-04 22:07:00,33.7,32.9,29.93,North,360,0.0,0.0,97,0.00,,---,0.01,VWS V13.01,2013-12-05 03:07:00,
2013-12-04 22:12:00,33.9,33.1,29.93,North,360,0.0,0.0,97,0.00,,---,0.01,VWS V13.01,2013-12-05 03:12:00,
2013-12-04 22:17:00,34.1,33.3,29.93,North,360,0.0,0.0,97,0.00,,---,0.01,VWS V13.01,2013-12-05 03:17:00,
2013-12-04 22:22:00,34.1,33.3,29.92,North,360,0.0,0.0,97,0.00,,---,0.01,VWS V13.01,2013-12-05 03:22:00,
2013-12-04 22:27:00,34.4,33.6,29.92,North,360,0.0,0.0,97,0.00,,---,0.01,VWS V13.01,2013-12-05 03:27:00,
2013-12-04 22:32:00,34.4,33.6,29.93,North,360,0.0,0.0,97,0.00,,---,0.01,VWS V13.01,2013-12-05 03:32:00,
2013-12-04 22:37:00,34.4,33.6,29.93,North,360,0.0,0.0,97,0.00,,---,0.01,VWS V13.01,2013-12-05 03:37:00,
2013-12-04 22:42:00,34.3,33.5,29.92,North,360,0.0,0.0,97,0.00,,---,0.01,VWS V13.01,2013-12-05 03:42:00,
2013-12-04 22:47:00,34.0,33.2,29.92,North,360,0.0,0.0,97,0.00,,---,0.01,VWS V13.01,2013-12-05 03:47:00,
2013-12-04 22:52:00,33.8,33.0,29.92,North,360,0.0,0.0,97,0.00,,---,0.01,VWS V13.01,2013-12-05 03:52:00,
2013-12-04 22:57:00,33.7,32.9,29.93,North,360,0.0,0.0,97,0.00,,---,0.01,VWS V13.01,2013-12-05 03:57:00,
2013-12-04 23:02:00,33.8,33.0,29.93,North,360,0.0,0.0,97,0.00,,---,0.01,VWS V13.01,2013-12-05 04:02:00,
2013-12-04 23:08:00,34.1,33.3,29.93,North,360,0.0,0.0,97,0.00,,---,0.01,VWS V13.01,2013-12-05 04:08:00,
2013-12-04 23:13:00,34.2,33.4,29.93,North,360,0.0,0.0,97,0.00,,---,0.01,VWS V13.01,2013-12-05 04:13:00,
2013-12-04 23:18:00,34.4,33.6,29.93,North,360,0.0,0.0,97,0.00,,---,0.01,VWS V13.01,2013-12-05 04:18:00,
2013-12-04 23:23:00,34.4,33.6,29.93,North,360,0.0,0.0,97,0.00,,---,0.01,VWS V13.01,2013-12-05 04:23:00,
2013-12-04 23:28:00,34.4,33.6,29.93,North,360,0.0,0.0,97,0.00,,---,0.01,VWS V13.01,2013-12-05 04:28:00,
2013-12-04 23:33:00,34.4,33.6,29.94,North,360,0.0,0.0,97,0.00,,---,0.01,VWS V13.01,2013-12-05 04:33:00,
2013-12-04 23:38:00,34.4,33.6,29.93,North,360,0.0,0.0,97,0.00,,---,0.01,VWS V13.01,2013-12-05 04:38:00,
2013-12-04 23:43:00,34.4,33.6,29.93,North,360,0.0,0.0,97,0.00,,---,0.01,VWS V13.01,2013-12-05 04:43:00,
2013-12-04 23:48:00,34.4,33.6,29.93,North,360,0.0,0.0,97,0.00,,---,0.01,VWS V13.01,2013-12-05 04:48:00,
2013-12-04 23:53:00,34.4,33.6,29.92,North,360,0.0,1.0,97,0.00,,---,0.01,VWS V13.01,2013-12-05 04:53:00,
2013-12-04 23:58:00,34.4,33.6,29.93,North,360,0.0,1.0,97,0.00,,---,0.01,VWS V13.01,2013-12-05 04:58:00,